Terminal Aerodrome Forecast
Issued by NWS Albuquerque, NM

Home | Current Version | Previous Version | Text Only | Print | Product List | Glossary On
Versions: 1 2 3 4 5 6 7 8 9 10 11 12 13 14 15 16 17
000
FTUS45 KABQ 030539
TAFABQ
TAF
KABQ 030539Z 0306/0406 27010KT P6SM VCSH SCT060 BKN100
     FM031000 VRB06KT P6SM SCT100
     FM031900 29010KT P6SM FEW150
     FM040200 36006KT P6SM FEW150=

USA.gov is the U.S. government's official web portal to all federal, state and local government web resources and services.